Southwest Florida International Airport Fort Myers US
ICAO: KRSW
IATA: RSW
Category: Large
Scheduled Services: Yes

Elevation: 30 ft
TransAlt. 18000 ft.

Airport Communications:
FORT MYERS APP/DEP:119.75
ATIS:124.65
CLNC DEL:132.075
GND:121.9
FORT MYERS TWR:128.75
CTAF/UNICOM:122.95

KRSW Zoom In..

Runways:

(A) RW 06 length 12000 ft width 150 ft
ILS 111.50 / hdg 58

(B) RW 24 length 12000 ft width 150 ft
---- / hdg 238

Location; KRSW
Day. 20 / Time. 02.53 Zulu
* Altimeter: 30.01
* Temperature: 29° c. 84.2°f.
* Wind from: 000° Speed 00 kn.
Dewpoint: 25° c.
Visibility: 10 Statute Miles.
Clouds: Scattered 2700 ft.

KRSW 200253Z AUTO 00000KT 10SM SCT027 29/25 A3001 RMK AO2 SLP160 T02940250 50011


Wind - Calm.

 
 
jpsmedia.com for Web Design worldairports.se 2018   terms of use